Time;durP1;ratioP1;P1;durP2;ratioP2;P2;SDS_P1;SDS_P2;PMS_P1;PMS_P2;Temp;Humidity;BMP_temperature;BMP_pressure;BME280_temperature;BME280_humidity;BME280_pressure;Samples;Min_cycle;Max_cycle;Signal;HPM_P1;HPM_P2
2022/05/12 00:02:01;;;;;;;2.58;0.70;;;22.00;59.70;;;;;;5035685;28;20052;-58
2022/05/12 00:04:28;;;;;;;2.22;0.65;;;22.00;59.70;;;;;;5050998;28;20044;-58
2022/05/12 00:06:53;;;;;;;2.88;0.80;;;22.00;59.70;;;;;;5034614;28;20083;-58
2022/05/12 00:09:19;;;;;;;1.85;0.70;;;22.00;59.70;;;;;;5035848;28;20041;-58
2022/05/12 00:11:45;;;;;;;3.92;0.95;;;22.00;59.70;;;;;;5035011;28;20159;-58
2022/05/12 00:14:10;;;;;;;2.75;0.80;;;22.00;59.70;;;;;;5034862;28;20075;-58
2022/05/12 00:16:36;;;;;;;3.15;0.80;;;22.00;59.70;;;;;;5035352;28;20163;-58
2022/05/12 00:19:02;;;;;;;3.40;0.80;;;22.00;59.60;;;;;;5035208;28;20187;-57
2022/05/12 00:21:27;;;;;;;2.33;0.70;;;22.00;59.70;;;;;;5034690;28;20458;-58
2022/05/12 00:23:59;;;;;;;2.20;0.50;;;22.00;59.70;;;;;;5035061;28;20049;-58
2022/05/12 00:26:29;;;;;;;3.03;0.70;;;22.00;59.60;;;;;;5035471;28;20171;-58
2022/05/12 00:28:57;;;;;;;2.45;0.75;;;22.00;59.60;;;;;;5034401;28;20041;-58
2022/05/12 00:31:22;;;;;;;3.53;0.50;;;21.90;59.60;;;;;;5035446;28;20041;-58
2022/05/12 00:33:48;;;;;;;4.05;0.68;;;21.90;59.60;;;;;;5034739;28;20052;-57
2022/05/12 00:36:13;;;;;;;2.33;0.70;;;21.90;59.60;;;;;;5034392;28;20041;-58
2022/05/12 00:38:39;;;;;;;2.92;0.80;;;21.90;59.50;;;;;;5035209;28;20045;-58
2022/05/12 00:41:05;;;;;;;3.67;0.88;;;21.90;59.50;;;;;;5035135;28;20124;-58
2022/05/12 00:43:43;;;;;;;3.72;0.70;;;21.90;59.50;;;;;;5034419;28;20132;-57
2022/05/12 00:46:14;;;;;;;2.50;0.88;;;21.90;59.50;;;;;;5035047;28;20038;-58
2022/05/12 00:48:40;;;;;;;1.70;0.50;;;21.90;59.50;;;;;;5034148;28;20049;-58
2022/05/12 00:51:07;;;;;;;1.80;0.68;;;21.90;59.50;;;;;;5034792;28;20085;-57
2022/05/12 00:53:33;;;;;;;2.55;0.60;;;21.90;59.50;;;;;;5050311;28;20045;-58
2022/05/12 00:55:58;;;;;;;2.15;0.50;;;21.90;59.40;;;;;;5049057;28;20046;-58
2022/05/12 00:58:24;;;;;;;1.63;0.57;;;21.90;59.40;;;;;;5050097;28;20087;-58
2022/05/12 01:00:50;;;;;;;1.52;0.50;;;21.90;59.40;;;;;;5049712;28;20175;-58
2022/05/12 01:03:18;;;;;;;1.52;0.52;;;21.90;59.40;;;;;;5034144;28;20053;-58
2022/05/12 01:05:44;;;;;;;1.80;0.50;;;21.80;59.30;;;;;;5034041;28;20386;-58
2022/05/12 01:08:11;;;;;;;3.95;0.70;;;21.80;59.30;;;;;;5049764;28;20046;-58
2022/05/12 01:10:36;;;;;;;2.95;0.68;;;21.80;59.30;;;;;;5049010;28;20041;-58
2022/05/12 01:13:02;;;;;;;2.50;0.57;;;21.80;59.30;;;;;;5049370;28;20152;-58
2022/05/12 01:15:27;;;;;;;2.35;0.55;;;21.80;59.30;;;;;;5034434;28;20052;-58
2022/05/12 01:18:10;;;;;;;3.72;0.70;;;21.80;59.30;;;;;;5033520;28;20045;-58
2022/05/12 01:20:36;;;;;;;2.55;0.60;;;21.80;59.30;;;;;;5034524;28;20055;-58
2022/05/12 01:23:23;;;;;;;2.05;0.50;;;21.80;59.30;;;;;;5034243;28;20045;-58
2022/05/12 01:25:49;;;;;;;3.37;0.60;;;21.80;59.30;;;;;;5034022;28;20052;-58
2022/05/12 01:28:15;;;;;;;2.35;0.93;;;21.80;59.30;;;;;;5034372;28;20041;-58
2022/05/12 01:30:40;;;;;;;1.67;0.60;;;21.80;59.30;;;;;;5032844;28;20834;-59
2022/05/12 01:33:06;;;;;;;1.67;0.35;;;21.80;59.30;;;;;;5034266;28;20081;-57
2022/05/12 01:35:32;;;;;;;3.08;0.60;;;21.80;59.30;;;;;;5034032;28;20064;-58
2022/05/12 01:37:58;;;;;;;1.48;0.50;;;21.80;59.20;;;;;;5032893;28;20048;-58
2022/05/12 01:40:24;;;;;;;4.15;0.60;;;21.80;59.20;;;;;;5034030;28;20428;-58
2022/05/12 01:42:49;;;;;;;1.77;0.50;;;21.80;59.20;;;;;;5033634;28;20550;-58
2022/05/12 01:45:15;;;;;;;1.73;0.50;;;21.70;59.10;;;;;;5032628;28;20083;-57
2022/05/12 01:47:41;;;;;;;1.30;0.60;;;21.70;59.10;;;;;;5033440;28;20045;-58
2022/05/12 01:50:07;;;;;;;1.52;0.55;;;21.70;59.20;;;;;;5033934;28;20041;-58
2022/05/12 01:52:32;;;;;;;2.40;0.60;;;21.70;59.10;;;;;;5032920;28;20098;-57
2022/05/12 01:54:58;;;;;;;1.88;0.52;;;21.70;59.20;;;;;;5033248;28;20046;-57
2022/05/12 01:57:23;;;;;;;2.00;0.60;;;21.70;59.10;;;;;;5033809;28;20037;-57
2022/05/12 01:59:49;;;;;;;1.75;0.47;;;21.70;59.10;;;;;;5032299;28;20536;-57
2022/05/12 02:02:15;;;;;;;2.38;0.40;;;21.70;59.10;;;;;;5033471;28;20038;-57
2022/05/12 02:04:41;;;;;;;2.58;0.50;;;21.70;59.10;;;;;;5033220;28;20432;-57
2022/05/12 02:07:07;;;;;;;3.80;0.60;;;21.70;59.10;;;;;;5032830;28;20481;-57
2022/05/12 02:09:32;;;;;;;0.88;0.50;;;21.70;59.10;;;;;;5033524;28;20065;-57
2022/05/12 02:11:58;;;;;;;3.20;0.50;;;21.70;59.10;;;;;;5032776;28;20057;-58
2022/05/12 02:14:23;;;;;;;1.58;0.50;;;21.70;59.00;;;;;;5032717;28;20084;-58
2022/05/12 02:16:49;;;;;;;1.13;0.40;;;21.60;58.90;;;;;;5033081;28;20042;-57
2022/05/12 02:19:14;;;;;;;4.97;0.95;;;21.70;59.00;;;;;;5033309;28;20442;-58
2022/05/12 02:21:40;;;;;;;2.03;0.50;;;21.70;59.00;;;;;;5031538;28;20057;-58
2022/05/12 02:24:06;;;;;;;2.30;0.57;;;21.60;58.90;;;;;;5033089;28;20523;-57
2022/05/12 02:26:32;;;;;;;2.17;0.77;;;21.60;59.00;;;;;;5033180;28;20042;-57
2022/05/12 02:28:57;;;;;;;1.20;0.50;;;21.60;58.90;;;;;;5032160;28;20488;-57
2022/05/12 02:31:23;;;;;;;0.98;0.47;;;21.60;58.90;;;;;;5033182;28;20102;-57
2022/05/12 02:33:49;;;;;;;1.13;0.45;;;21.60;58.90;;;;;;5031707;28;20046;-58
2022/05/12 02:36:14;;;;;;;1.23;0.38;;;21.60;58.90;;;;;;5033176;28;20048;-57
2022/05/12 02:38:40;;;;;;;1.77;0.60;;;21.60;58.90;;;;;;5032831;28;20037;-57
2022/05/12 02:41:05;;;;;;;1.80;0.45;;;21.60;58.90;;;;;;5032277;28;20041;-57
2022/05/12 02:43:31;;;;;;;2.22;0.40;;;21.60;58.80;;;;;;5032681;28;20044;-57
2022/05/12 02:45:59;;;;;;;0.80;0.30;;;21.60;58.80;;;;;;5032619;28;20128;-57
2022/05/12 02:48:27;;;;;;;2.60;0.52;;;21.60;58.80;;;;;;5032183;28;20045;-58
2022/05/12 02:50:52;;;;;;;1.20;0.40;;;21.60;58.80;;;;;;5032347;28;20480;-57
2022/05/12 02:53:18;;;;;;;1.70;0.45;;;21.60;58.80;;;;;;5032775;28;20052;-57
2022/05/12 02:55:43;;;;;;;2.05;0.70;;;21.60;58.80;;;;;;5031381;28;20503;-58
2022/05/12 02:58:09;;;;;;;1.80;0.45;;;21.60;58.80;;;;;;5032719;28;20404;-57
2022/05/12 03:00:34;;;;;;;1.48;0.47;;;21.50;58.70;;;;;;5032804;28;20477;-57
2022/05/12 03:03:00;;;;;;;1.20;0.40;;;21.50;58.70;;;;;;5030155;28;20045;-57
2022/05/12 03:05:27;;;;;;;1.55;0.40;;;21.60;58.80;;;;;;5032791;28;20053;-58
2022/05/12 03:07:52;;;;;;;0.88;0.45;;;21.50;58.70;;;;;;5032322;28;20085;-58
2022/05/12 03:10:18;;;;;;;1.73;0.40;;;21.50;58.70;;;;;;5032000;28;20072;-58
2022/05/12 03:12:43;;;;;;;2.78;0.40;;;21.50;58.70;;;;;;5031843;28;20065;-58
2022/05/12 03:15:09;;;;;;;0.85;0.38;;;21.50;58.60;;;;;;5032667;28;20042;-58
2022/05/12 03:17:35;;;;;;;3.90;0.60;;;21.50;58.60;;;;;;5031741;28;20476;-57
2022/05/12 03:20:02;;;;;;;1.33;0.40;;;21.50;58.60;;;;;;5032307;28;20053;-57
2022/05/12 03:22:28;;;;;;;1.23;0.43;;;21.50;58.60;;;;;;5047802;28;20041;-58
2022/05/12 03:24:53;;;;;;;1.52;0.40;;;21.50;58.60;;;;;;5031311;28;20450;-58
2022/05/12 03:27:19;;;;;;;1.10;0.40;;;21.50;58.60;;;;;;5032103;28;20041;-58
2022/05/12 03:29:45;;;;;;;1.30;0.40;;;21.50;58.60;;;;;;5031826;28;20056;-58
2022/05/12 03:32:12;;;;;;;1.05;0.38;;;21.50;58.70;;;;;;5031614;28;20091;-58
2022/05/12 03:34:39;;;;;;;1.10;0.60;;;21.40;58.60;;;;;;5033988;28;20158;-58
2022/05/12 03:37:06;;;;;;;1.27;0.50;;;21.50;58.70;;;;;;5035412;28;20554;-58
2022/05/12 03:39:31;;;;;;;2.38;0.45;;;21.40;58.60;;;;;;5036515;28;20050;-57
2022/05/12 03:41:57;;;;;;;1.55;0.47;;;21.40;58.50;;;;;;5035515;28;20065;-57
2022/05/12 03:47:07;;;;;;;0.75;0.30;;;21.40;58.50;;;;;;5035960;28;20481;-58
2022/05/12 03:49:32;;;;;;;1.63;0.50;;;21.40;58.50;;;;;;5036279;28;20046;-58
2022/05/12 03:51:58;;;;;;;1.35;0.50;;;21.40;58.50;;;;;;5034844;28;20055;-58
2022/05/12 03:54:23;;;;;;;1.73;0.43;;;21.40;58.50;;;;;;5035769;28;20132;-58
2022/05/12 03:56:49;;;;;;;1.10;0.40;;;21.40;58.50;;;;;;5035764;28;20115;-57
2022/05/12 03:59:15;;;;;;;0.70;0.40;;;21.40;58.50;;;;;;5035409;28;20397;-58
2022/05/12 04:01:40;;;;;;;1.00;0.45;;;21.40;58.50;;;;;;5035200;28;20486;-57
2022/05/12 04:04:06;;;;;;;2.05;0.40;;;21.40;58.50;;;;;;5034900;28;20512;-58
2022/05/12 04:06:31;;;;;;;2.15;0.68;;;21.30;58.40;;;;;;5034630;28;20056;-57
2022/05/12 04:08:57;;;;;;;1.13;0.45;;;21.40;58.50;;;;;;5035379;28;20045;-58
2022/05/12 04:11:22;;;;;;;1.80;0.40;;;21.30;58.40;;;;;;5035266;28;20393;-57
2022/05/12 04:13:48;;;;;;;1.67;0.38;;;21.40;58.50;;;;;;5034260;28;20053;-57
2022/05/12 04:16:15;;;;;;;1.08;0.30;;;21.30;58.50;;;;;;5035731;28;20038;-57
2022/05/12 04:18:41;;;;;;;1.30;0.37;;;21.30;58.40;;;;;;5035352;28;20049;-57
2022/05/12 04:21:06;;;;;;;1.45;0.40;;;21.30;58.50;;;;;;5034974;28;20128;-58
2022/05/12 04:23:32;;;;;;;2.03;0.40;;;21.30;58.50;;;;;;5035330;28;20041;-58
2022/05/12 04:25:57;;;;;;;2.30;0.40;;;21.30;58.50;;;;;;5035005;28;20045;-58
2022/05/12 04:28:23;;;;;;;1.55;0.40;;;21.30;58.40;;;;;;5034716;28;20045;-58
2022/05/12 04:30:48;;;;;;;0.82;0.30;;;21.30;58.40;;;;;;5034935;28;20085;-58
2022/05/12 04:35:58;;;;;;;1.00;0.35;;;21.30;58.40;;;;;;5034671;28;20415;-57
2022/05/12 04:38:23;;;;;;;1.92;0.45;;;21.30;58.30;;;;;;5035346;28;20041;-57
2022/05/12 04:40:51;;;;;;;1.60;0.30;;;21.30;58.10;;;;;;5033819;28;20076;-57
2022/05/12 04:43:17;;;;;;;1.90;0.40;;;21.40;58.00;;;;;;5050378;28;20452;-57
2022/05/12 04:45:43;;;;;;;2.65;0.40;;;21.40;58.00;;;;;;5034310;28;20531;-57
2022/05/12 04:48:08;;;;;;;1.15;0.32;;;21.40;57.90;;;;;;5034300;28;20045;-57
2022/05/12 04:50:35;;;;;;;0.60;0.32;;;21.40;57.80;;;;;;5034970;28;20366;-57
2022/05/12 04:53:01;;;;;;;1.95;0.47;;;21.40;57.70;;;;;;5034682;28;20052;-57
2022/05/12 04:55:27;;;;;;;0.73;0.30;;;21.40;57.80;;;;;;5034248;28;20435;-57
2022/05/12 04:57:55;;;;;;;1.60;0.43;;;21.50;57.80;;;;;;5034390;28;20189;-57
2022/05/12 05:00:23;;;;;;;1.70;0.40;;;21.40;57.70;;;;;;5034869;28;20128;-57
2022/05/12 05:02:49;;;;;;;1.42;0.40;;;21.40;57.70;;;;;;5033810;28;20089;-57
2022/05/12 05:05:14;;;;;;;0.85;0.45;;;21.50;57.80;;;;;;5034808;28;20077;-57
2022/05/12 05:07:40;;;;;;;1.08;0.30;;;21.40;57.80;;;;;;5034367;28;20046;-57
2022/05/12 05:10:05;;;;;;;1.58;0.30;;;21.50;57.80;;;;;;5033980;28;20084;-57
2022/05/12 05:12:31;;;;;;;0.68;0.28;;;21.50;58.50;;;;;;5034076;28;20053;-57
2022/05/12 05:14:57;;;;;;;1.38;0.30;;;21.50;57.80;;;;;;5034103;28;20049;-58
2022/05/12 05:17:23;;;;;;;1.33;0.40;;;21.50;57.90;;;;;;5033845;28;20084;-58
2022/05/12 05:19:49;;;;;;;1.45;0.40;;;21.50;57.90;;;;;;5033863;28;20050;-57
2022/05/12 05:22:15;;;;;;;1.02;0.30;;;21.50;57.90;;;;;;5034540;28;20051;-58
2022/05/12 05:24:41;;;;;;;1.42;0.40;;;21.50;58.00;;;;;;5033536;28;20042;-58
2022/05/12 05:27:06;;;;;;;1.10;0.40;;;21.50;58.00;;;;;;5034129;28;20120;-58
2022/05/12 05:29:32;;;;;;;0.50;0.38;;;21.50;58.10;;;;;;5033562;28;20050;-58
2022/05/12 05:31:58;;;;;;;1.25;0.40;;;21.50;58.10;;;;;;5033713;28;20048;-58
2022/05/12 05:34:23;;;;;;;1.02;0.40;;;21.50;58.10;;;;;;5034192;28;20053;-57
2022/05/12 05:36:49;;;;;;;0.65;0.30;;;21.60;58.20;;;;;;5032898;28;20485;-57
2022/05/12 05:39:19;;;;;;;1.02;0.30;;;21.50;58.10;;;;;;5033954;28;20160;-57
2022/05/12 05:41:45;;;;;;;1.45;0.40;;;21.50;58.20;;;;;;5033476;28;20048;-59
2022/05/12 05:44:10;;;;;;;1.15;0.47;;;21.50;58.20;;;;;;5033456;28;20433;-57
2022/05/12 05:46:36;;;;;;;2.00;0.47;;;21.50;58.20;;;;;;5033914;28;20088;-58
2022/05/12 05:49:01;;;;;;;1.52;0.43;;;21.50;58.20;;;;;;5033378;28;20489;-57
2022/05/12 05:54:11;;;;;;;2.92;0.55;;;21.60;58.20;;;;;;5033865;28;20045;-57
2022/05/12 05:56:37;;;;;;;1.83;0.50;;;21.50;58.30;;;;;;5032999;28;20041;-57
2022/05/12 05:59:03;;;;;;;3.13;0.40;;;21.50;58.30;;;;;;5032123;28;20107;-57
2022/05/12 06:01:29;;;;;;;1.75;0.40;;;21.60;58.50;;;;;;5033361;28;20041;-56
2022/05/12 06:03:56;;;;;;;1.30;0.43;;;21.60;58.50;;;;;;5033192;28;20053;-57
2022/05/12 06:06:22;;;;;;;2.97;0.40;;;21.50;58.50;;;;;;5032732;28;20043;-57
2022/05/12 06:08:48;;;;;;;1.42;0.40;;;21.60;58.60;;;;;;5033255;28;20131;-57
2022/05/12 06:11:14;;;;;;;4.03;0.50;;;21.60;58.60;;;;;;5033389;28;20041;-57
2022/05/12 06:13:40;;;;;;;1.50;0.40;;;21.60;58.70;;;;;;5031941;28;20107;-57
2022/05/12 06:16:05;;;;;;;2.88;0.63;;;21.60;58.90;;;;;;5033120;28;20049;-57
2022/05/12 06:18:31;;;;;;;2.08;0.43;;;21.60;59.00;;;;;;5032001;28;20052;-57
2022/05/12 06:20:56;;;;;;;3.13;0.50;;;21.60;59.00;;;;;;5032276;28;20044;-58
2022/05/12 06:23:22;;;;;;;5.07;0.40;;;21.70;59.10;;;;;;5033357;28;20050;-58
2022/05/12 06:25:48;;;;;;;3.00;0.50;;;21.60;59.10;;;;;;5031315;28;20073;-57
2022/05/12 06:28:13;;;;;;;3.30;0.63;;;21.70;59.10;;;;;;5032144;28;20045;-58
2022/05/12 06:30:39;;;;;;;1.65;0.57;;;21.70;59.30;;;;;;5030141;28;20396;-57
2022/05/12 06:33:05;;;;;;;4.53;0.68;;;21.70;59.40;;;;;;5031667;28;20045;-56
2022/05/12 06:35:30;;;;;;;4.00;0.60;;;21.70;59.50;;;;;;5032618;28;20053;-57
2022/05/12 06:37:56;;;;;;;2.03;0.57;;;21.70;59.60;;;;;;5029495;28;20656;-57
2022/05/12 06:40:21;;;;;;;2.10;0.50;;;21.70;59.80;;;;;;5031551;28;20041;-57
2022/05/12 06:42:47;;;;;;;5.18;0.40;;;21.70;59.90;;;;;;5031941;28;20117;-57
2022/05/12 06:45:15;;;;;;;3.15;0.52;;;21.70;59.90;;;;;;5032263;28;20140;-57
2022/05/12 06:47:50;;;;;;;2.65;0.85;;;21.70;60.00;;;;;;5030914;28;20485;-57
2022/05/12 06:50:17;;;;;;;3.35;0.73;;;21.70;60.20;;;;;;5032602;28;20041;-58
2022/05/12 06:52:42;;;;;;;1.67;0.32;;;21.70;60.20;;;;;;5031953;28;20095;-58
2022/05/12 06:55:08;;;;;;;8.95;0.95;;;21.70;60.30;;;;;;5031922;28;20049;-59
2022/05/12 06:57:34;;;;;;;2.72;0.65;;;21.70;60.30;;;;;;5032188;28;20042;-57
2022/05/12 06:59:59;;;;;;;2.17;0.63;;;21.70;60.30;;;;;;5032310;28;20448;-58
2022/05/12 07:02:25;;;;;;;3.90;0.50;;;21.70;60.30;;;;;;5031996;28;20085;-57
2022/05/12 07:04:52;;;;;;;2.90;0.60;;;21.70;60.30;;;;;;5032237;28;20160;-57
2022/05/12 07:07:18;;;;;;;3.72;0.70;;;21.70;60.30;;;;;;5032400;28;20464;-58
2022/05/12 07:09:43;;;;;;;3.85;0.70;;;21.80;60.40;;;;;;5031573;28;20052;-58
2022/05/12 07:12:11;;;;;;;6.18;0.70;;;21.80;60.50;;;;;;5031812;28;20049;-58
2022/05/12 07:14:36;;;;;;;3.47;0.73;;;21.80;60.60;;;;;;5032597;28;20100;-58
2022/05/12 07:17:03;;;;;;;4.20;0.60;;;21.80;60.50;;;;;;5031263;28;20041;-57
2022/05/12 07:19:31;;;;;;;4.13;0.60;;;21.80;60.60;;;;;;5032629;28;20048;-57
2022/05/12 07:27:25;;;;;;;3.13;0.60;;;21.80;60.70;;;;;;5032474;28;20053;-59
2022/05/12 07:29:51;;;;;;;4.78;0.68;;;21.80;60.70;;;;;;5031392;28;20120;-58
2022/05/12 07:32:16;;;;;;;4.25;0.50;;;21.80;60.60;;;;;;5032523;28;20131;-58
2022/05/12 07:34:42;;;;;;;7.82;0.60;;;21.80;60.60;;;;;;5031962;28;20049;-58
2022/05/12 07:37:07;;;;;;;3.47;0.50;;;21.80;60.60;;;;;;5031782;28;20048;-58
2022/05/12 07:39:33;;;;;;;5.43;0.60;;;21.80;60.70;;;;;;5032553;28;20046;-58
2022/05/12 07:42:00;;;;;;;1.40;0.60;;;21.80;60.70;;;;;;5031976;28;20052;-58
2022/05/12 07:44:32;;;;;;;3.13;0.80;;;21.90;60.80;;;;;;5031611;28;20087;-58
2022/05/12 07:47:01;;;;;;;1.92;0.50;;;21.90;60.80;;;;;;5029214;28;20424;-58
2022/05/12 07:49:32;;;;;;;3.33;0.80;;;21.90;60.80;;;;;;5052306;28;20041;-58
2022/05/12 07:51:59;;;;;;;1.98;0.70;;;21.90;60.80;;;;;;5050784;28;20041;-58
2022/05/12 07:54:25;;;;;;;2.67;0.43;;;21.90;60.90;;;;;;5052026;28;20512;-58
2022/05/12 07:56:50;;;;;;;2.90;0.60;;;21.90;60.90;;;;;;5051852;28;20037;-58
2022/05/12 07:59:16;;;;;;;1.20;0.43;;;21.90;60.90;;;;;;5051347;28;20045;-57
2022/05/12 08:01:41;;;;;;;3.75;0.60;;;21.90;60.90;;;;;;5051638;28;20037;-57
2022/05/12 08:04:07;;;;;;;3.58;0.50;;;22.00;61.00;;;;;;5051826;28;20047;-58
2022/05/12 08:06:33;;;;;;;2.78;0.47;;;22.00;61.00;;;;;;5051026;28;20051;-58
2022/05/12 08:08:59;;;;;;;1.95;0.40;;;22.00;61.00;;;;;;5051738;28;20077;-57
2022/05/12 08:11:24;;;;;;;2.50;0.47;;;22.00;60.90;;;;;;5051093;28;20559;-57
2022/05/12 08:13:50;;;;;;;2.78;0.52;;;22.00;61.00;;;;;;5051351;28;20064;-57
2022/05/12 08:16:19;;;;;;;4.63;0.50;;;22.00;61.00;;;;;;5051491;28;20037;-58
2022/05/12 08:18:47;;;;;;;1.85;0.52;;;22.10;61.10;;;;;;5050720;28;20426;-58
2022/05/12 08:21:13;;;;;;;4.35;0.73;;;22.10;61.00;;;;;;5052626;28;20056;-61
2022/05/12 08:23:39;;;;;;;10.65;0.70;;;22.10;61.00;;;;;;5054870;28;20052;-59
2022/05/12 08:26:05;;;;;;;4.75;0.70;;;22.10;60.80;;;;;;5054175;28;20037;-60
2022/05/12 08:28:30;;;;;;;5.13;0.70;;;22.10;60.80;;;;;;5055003;28;20116;-61
2022/05/12 08:30:56;;;;;;;3.38;0.70;;;22.20;61.00;;;;;;5054596;28;20404;-59
2022/05/12 08:33:21;;;;;;;6.05;0.70;;;22.20;61.10;;;;;;5053679;28;20063;-59
2022/05/12 08:35:47;;;;;;;5.13;0.85;;;22.20;61.10;;;;;;5054647;28;20044;-59
2022/05/12 08:38:13;;;;;;;3.85;0.52;;;22.20;60.80;;;;;;5054062;28;20384;-59
2022/05/12 08:41:02;;;;;;;6.53;0.88;;;22.20;60.50;;;;;;5039932;28;20067;-59
2022/05/12 08:43:52;;;;;;;9.60;0.80;;;22.20;60.40;;;;;;5046831;28;20053;-59
2022/05/12 08:46:19;;;;;;;6.85;1.17;;;22.20;60.50;;;;;;5045167;28;20106;-58
2022/05/12 08:48:45;;;;;;;6.93;0.80;;;22.20;60.50;;;;;;5059495;28;20041;-58
2022/05/12 08:51:13;;;;;;;5.68;0.70;;;22.20;60.60;;;;;;5043678;28;20389;-59
2022/05/12 08:54:10;;;;;;;3.88;0.80;;;22.20;60.70;;;;;;5041797;28;20037;-59
2022/05/12 08:56:35;;;;;;;2.33;0.60;;;22.20;60.70;;;;;;5042956;28;20122;-56
2022/05/12 08:59:01;;;;;;;9.93;0.70;;;22.20;60.70;;;;;;5044979;28;20106;-57
2022/05/12 09:01:51;;;;;;;2.03;0.60;;;22.20;60.70;;;;;;5042420;28;20068;-56
2022/05/12 09:04:29;;;;;;;3.88;0.60;;;22.20;60.80;;;;;;5022824;28;20134;-58
2022/05/12 09:07:17;;;;;;;4.70;0.80;;;22.20;60.70;;;;;;5031372;28;20052;-58
2022/05/12 09:10:03;;;;;;;6.05;0.60;;;22.20;60.60;;;;;;5058718;28;20477;-58
2022/05/12 09:13:00;;;;;;;4.93;0.85;;;22.20;60.60;;;;;;5055813;28;20057;-58
2022/05/12 09:15:34;;;;;;;3.53;0.60;;;22.20;60.40;;;;;;5059470;28;20440;-59
2022/05/12 09:18:17;;;;;;;3.53;0.60;;;22.20;60.30;;;;;;5044227;28;20045;-57
2022/05/12 09:20:42;;;;;;;6.38;0.70;;;22.30;60.60;;;;;;5058869;28;20562;-58
2022/05/12 09:23:08;;;;;;;3.60;0.52;;;22.30;60.60;;;;;;5041838;28;20124;-56
2022/05/12 09:25:36;;;;;;;4.03;0.70;;;22.30;60.80;;;;;;5044131;28;20125;-57
2022/05/12 09:28:17;;;;;;;4.88;0.52;;;22.30;60.80;;;;;;5059620;28;20099;-57
2022/05/12 09:30:43;;;;;;;3.20;0.50;;;22.30;60.80;;;;;;5043907;28;20053;-57
2022/05/12 09:33:08;;;;;;;3.15;0.55;;;22.30;60.90;;;;;;5053922;28;20097;-57
2022/05/12 09:35:35;;;;;;;3.90;0.65;;;22.30;60.90;;;;;;5053692;28;20037;-57
2022/05/12 09:38:00;;;;;;;2.70;0.47;;;22.30;60.90;;;;;;5051846;28;20045;-57
2022/05/12 09:40:37;;;;;;;3.72;0.60;;;22.30;60.80;;;;;;5052476;28;20037;-57
2022/05/12 09:43:31;;;;;;;2.15;0.57;;;22.30;60.80;;;;;;5052856;28;20045;-57
2022/05/12 09:46:16;;;;;;;2.63;0.55;;;22.30;60.80;;;;;;5053205;28;20478;-57
2022/05/12 09:48:41;;;;;;;3.30;0.60;;;22.30;60.80;;;;;;5053345;28;20044;-57
2022/05/12 09:51:30;;;;;;;6.45;0.90;;;22.30;60.70;;;;;;5068637;28;20473;-57
2022/05/12 09:54:15;;;;;;;6.07;0.60;;;22.30;60.70;;;;;;5053345;28;20048;-57
2022/05/12 09:56:41;;;;;;;5.35;0.70;;;22.30;60.60;;;;;;5049989;28;20033;-58
2022/05/12 09:59:16;;;;;;;1.58;0.50;;;22.30;60.50;;;;;;5052247;28;20481;-58
2022/05/12 10:01:50;;;;;;;2.55;0.57;;;22.30;60.20;;;;;;5052793;28;20488;-58
2022/05/12 10:07:54;;;;;;;3.00;0.70;;;22.30;60.60;;;;;;5051672;28;20508;-57
2022/05/12 10:10:16;;;;;;;3.55;0.80;;;22.30;59.90;;;;;;5049051;28;20056;-58
2022/05/12 10:12:49;;;;;;;2.78;0.75;;;22.40;60.00;;;;;;5050881;28;20067;-58
2022/05/12 10:15:19;;;;;;;2.22;0.68;;;22.40;60.00;;;;;;5052058;28;20049;-57
2022/05/12 10:17:47;;;;;;;3.08;0.52;;;22.40;59.90;;;;;;5052946;28;20492;-57
2022/05/12 10:20:13;;;;;;;4.72;0.82;;;22.40;59.80;;;;;;5045582;28;20045;-58
2022/05/12 10:22:43;;;;;;;4.22;0.70;;;22.40;59.80;;;;;;5041884;28;20038;-59
2022/05/12 10:25:31;;;;;;;4.18;0.60;;;22.40;59.80;;;;;;5040178;28;20041;-59
2022/05/12 10:28:17;;;;;;;4.47;1.05;;;22.40;59.60;;;;;;5040400;28;20524;-59
2022/05/12 10:30:59;;;;;;;5.95;1.95;;;22.40;59.60;;;;;;5055098;28;20473;-59
2022/05/12 10:33:42;;;;;;;7.05;1.70;;;22.40;59.60;;;;;;5041753;28;20086;-59
2022/05/12 10:36:29;;;;;;;8.15;2.10;;;22.40;59.60;;;;;;5032985;28;20045;-59
2022/05/12 10:39:16;;;;;;;8.73;2.90;;;22.40;59.50;;;;;;5042369;28;20449;-59
2022/05/12 10:42:05;;;;;;;8.95;2.97;;;22.40;59.50;;;;;;5071319;28;20287;-60
2022/05/12 10:44:47;;;;;;;5.55;2.58;;;22.40;59.30;;;;;;5068857;28;20492;-60
2022/05/12 10:48:07;;;;;;;9.82;3.25;;;22.40;59.30;;;;;;5070929;28;20036;-59
2022/05/12 10:50:41;;;;;;;9.38;2.70;;;22.40;59.20;;;;;;5072973;28;20050;-60
2022/05/12 10:53:38;;;;;;;12.10;3.20;;;22.40;59.30;;;;;;5070630;28;20055;-59
2022/05/12 10:56:41;;;;;;;7.37;2.97;;;22.40;59.20;;;;;;5072661;28;20124;-60
2022/05/12 10:59:07;;;;;;;8.70;2.85;;;22.40;59.20;;;;;;5072405;28;20068;-59
2022/05/12 11:01:38;;;;;;;9.48;2.50;;;22.40;59.30;;;;;;5071827;28;20052;-60
2022/05/12 11:04:12;;;;;;;9.55;2.65;;;22.40;59.40;;;;;;5071205;28;20131;-59
2022/05/12 11:06:53;;;;;;;6.80;2.42;;;22.40;59.20;;;;;;5063678;28;20456;-59
2022/05/12 11:09:22;;;;;;;9.95;2.53;;;22.40;59.10;;;;;;5030518;28;20128;-59
2022/05/12 11:11:49;;;;;;;13.40;2.85;;;22.40;59.00;;;;;;5047281;28;20052;-59
2022/05/12 11:14:20;;;;;;;7.95;2.50;;;22.40;58.90;;;;;;5031274;28;20063;-59
2022/05/12 11:16:55;;;;;;;6.10;2.22;;;22.40;58.70;;;;;;5032284;28;20061;-59
2022/05/12 11:19:23;;;;;;;8.00;2.00;;;22.40;58.60;;;;;;5031336;28;20050;-58
2022/05/12 11:22:27;;;;;;;6.70;2.10;;;22.40;58.50;;;;;;5031576;28;20091;-59
2022/05/12 11:24:56;;;;;;;7.97;2.13;;;22.40;58.30;;;;;;5028915;28;20505;-59
2022/05/12 11:27:28;;;;;;;6.93;2.05;;;22.40;58.20;;;;;;5032534;28;20034;-59
2022/05/12 11:30:08;;;;;;;6.03;2.20;;;22.40;58.20;;;;;;5031415;28;20099;-59
2022/05/12 11:32:40;;;;;;;4.93;1.80;;;22.40;57.80;;;;;;5032200;28;20046;-59
2022/05/12 11:35:16;;;;;;;6.22;2.45;;;22.40;57.80;;;;;;5047520;28;20041;-59
2022/05/12 11:37:42;;;;;;;6.18;2.10;;;22.40;57.70;;;;;;5030865;28;20048;-58
2022/05/12 11:40:12;;;;;;;6.22;2.08;;;22.40;57.60;;;;;;5032251;28;20049;-58
2022/05/12 11:45:44;;;;;;;6.65;1.90;;;22.40;57.50;;;;;;5031934;28;20053;-59
2022/05/12 11:48:48;;;;;;;7.07;2.08;;;22.40;57.60;;;;;;5032271;28;20084;-59
2022/05/12 11:51:17;;;;;;;8.45;2.08;;;22.40;57.50;;;;;;5019930;28;20050;-59
2022/05/12 11:53:55;;;;;;;7.35;2.25;;;22.40;57.50;;;;;;5031641;28;20060;-58
2022/05/12 11:56:40;;;;;;;;;;;22.40;57.50;;;;;;5049478;28;20043;-59
2022/05/12 11:59:27;;;;;;;6.30;2.08;;;22.30;57.40;;;;;;5036082;28;20420;-58
2022/05/12 12:02:02;;;;;;;4.88;1.60;;;22.30;57.40;;;;;;5035505;28;20037;-58
2022/05/12 12:04:36;;;;;;;6.35;1.75;;;22.30;57.40;;;;;;5035342;28;20045;-59
2022/05/12 12:07:23;;;;;;;6.20;1.83;;;22.30;57.40;;;;;;5035408;28;20382;-59
2022/05/12 12:09:54;;;;;;;6.00;1.98;;;22.30;57.40;;;;;;5017870;28;20064;-59
2022/05/12 12:12:45;;;;;;;8.18;1.60;;;22.30;57.40;;;;;;5034607;28;20532;-59
2022/05/12 12:15:11;;;;;;;5.63;1.58;;;22.30;57.30;;;;;;5035738;28;20055;-59
2022/05/12 12:17:38;;;;;;;5.93;1.58;;;22.30;57.40;;;;;;5034945;28;20049;-58
2022/05/12 12:20:08;;;;;;;5.30;1.80;;;22.30;57.30;;;;;;5050831;28;20092;-59
2022/05/12 12:22:45;;;;;;;5.65;1.70;;;22.30;57.30;;;;;;5035457;28;20044;-58
2022/05/12 12:25:24;;;;;;;8.45;1.90;;;22.30;57.30;;;;;;5033581;28;20157;-59
2022/05/12 12:27:52;;;;;;;6.45;1.48;;;22.30;57.20;;;;;;5050662;28;20112;-59
2022/05/12 12:30:31;;;;;;;5.00;1.55;;;22.30;57.20;;;;;;5034890;28;20366;-59
2022/05/12 12:33:24;;;;;;;6.00;1.58;;;22.30;57.20;;;;;;5033969;28;20416;-58
2022/05/12 12:36:02;;;;;;;5.88;1.52;;;22.30;57.10;;;;;;5035275;28;20069;-59
2022/05/12 12:38:46;;;;;;;4.47;1.48;;;22.30;57.10;;;;;;5035288;28;20038;-59
2022/05/12 12:41:22;;;;;;;4.32;1.30;;;22.40;57.10;;;;;;5034695;28;20507;-59
2022/05/12 12:43:49;;;;;;;4.47;1.33;;;22.30;57.10;;;;;;5034970;28;20045;-59
2022/05/12 12:46:43;;;;;;;6.90;1.63;;;22.40;57.10;;;;;;5034424;28;20038;-59
2022/05/12 12:49:20;;;;;;;4.40;1.65;;;22.40;57.10;;;;;;5034886;28;20362;-59
2022/05/12 12:52:14;;;;;;;5.63;1.50;;;22.30;57.10;;;;;;5049282;28;20064;-59
2022/05/12 12:57:48;;;;;;;6.13;1.65;;;22.30;57.10;;;;;;5034928;28;20088;-59
2022/05/12 13:00:28;;;;;;;3.55;1.20;;;22.40;57.10;;;;;;5033711;28;20075;-59
2022/05/12 13:03:05;;;;;;;3.65;1.50;;;22.40;57.00;;;;;;5034718;28;20045;-58
2022/05/12 13:05:31;;;;;;;4.30;1.42;;;22.40;57.10;;;;;;5034494;28;20052;-59
2022/05/12 13:08:03;;;;;;;4.40;1.40;;;22.40;57.00;;;;;;5048947;28;20048;-59
2022/05/12 13:10:30;;;;;;;3.80;1.30;;;22.40;56.90;;;;;;5034750;28;20076;-59
2022/05/12 13:13:04;;;;;;;5.82;1.70;;;22.40;56.90;;;;;;5033855;28;20068;-58
2022/05/12 13:15:32;;;;;;;4.10;1.38;;;22.40;56.80;;;;;;5033074;28;20060;-58
2022/05/12 13:18:02;;;;;;;5.90;1.30;;;22.40;56.80;;;;;;5041996;28;20514;-58
2022/05/12 13:20:39;;;;;;;4.82;1.33;;;22.30;56.70;;;;;;5073073;28;20503;-57
2022/05/12 13:23:09;;;;;;;4.60;1.58;;;22.40;56.80;;;;;;5051974;28;20121;-59
2022/05/12 13:25:37;;;;;;;4.60;1.23;;;22.40;56.70;;;;;;5058638;28;20087;-58